sensor_id;sensor_type;location;lat;lon;timestamp;P1;durP1;ratioP1;P2;durP2;ratioP2
6825;SDS011;3451;52.476;13.316;2023-06-22T00:00:49;11.70;;;8.90;;
6825;SDS011;3451;52.476;13.316;2023-06-22T00:03:17;9.83;;;8.57;;
6825;SDS011;3451;52.476;13.316;2023-06-22T00:05:43;9.97;;;8.67;;
6825;SDS011;3451;52.476;13.316;2023-06-22T00:08:09;10.17;;;8.30;;
6825;SDS011;3451;52.476;13.316;2023-06-22T00:10:36;9.63;;;8.33;;
6825;SDS011;3451;52.476;13.316;2023-06-22T00:13:02;9.20;;;8.30;;
6825;SDS011;3451;52.476;13.316;2023-06-22T00:15:29;10.03;;;8.37;;
6825;SDS011;3451;52.476;13.316;2023-06-22T00:17:55;9.73;;;8.30;;
6825;SDS011;3451;52.476;13.316;2023-06-22T00:20:23;13.13;;;9.00;;
6825;SDS011;3451;52.476;13.316;2023-06-22T00:22:54;10.10;;;8.60;;
6825;SDS011;3451;52.476;13.316;2023-06-22T00:25:21;9.53;;;8.03;;
6825;SDS011;3451;52.476;13.316;2023-06-22T00:27:48;11.80;;;8.20;;
6825;SDS011;3451;52.476;13.316;2023-06-22T00:30:15;11.53;;;8.67;;
6825;SDS011;3451;52.476;13.316;2023-06-22T00:32:42;9.70;;;7.93;;
6825;SDS011;3451;52.476;13.316;2023-06-22T00:35:08;9.13;;;8.03;;
6825;SDS011;3451;52.476;13.316;2023-06-22T00:37:36;10.90;;;8.83;;
6825;SDS011;3451;52.476;13.316;2023-06-22T00:40:03;11.20;;;8.57;;
6825;SDS011;3451;52.476;13.316;2023-06-22T00:42:30;10.97;;;8.17;;
6825;SDS011;3451;52.476;13.316;2023-06-22T00:44:57;12.33;;;9.37;;
6825;SDS011;3451;52.476;13.316;2023-06-22T00:47:23;11.63;;;8.73;;
6825;SDS011;3451;52.476;13.316;2023-06-22T00:49:50;10.90;;;9.30;;
6825;SDS011;3451;52.476;13.316;2023-06-22T00:52:19;12.27;;;9.30;;
6825;SDS011;3451;52.476;13.316;2023-06-22T00:54:47;10.57;;;8.70;;
6825;SDS011;3451;52.476;13.316;2023-06-22T00:57:15;9.60;;;8.60;;
6825;SDS011;3451;52.476;13.316;2023-06-22T00:59:42;11.87;;;9.53;;
6825;SDS011;3451;52.476;13.316;2023-06-22T01:02:09;10.60;;;8.87;;
6825;SDS011;3451;52.476;13.316;2023-06-22T01:04:36;10.47;;;8.77;;
6825;SDS011;3451;52.476;13.316;2023-06-22T01:07:07;15.73;;;8.83;;
6825;SDS011;3451;52.476;13.316;2023-06-22T01:09:39;10.53;;;9.17;;
6825;SDS011;3451;52.476;13.316;2023-06-22T01:12:09;9.53;;;8.53;;
6825;SDS011;3451;52.476;13.316;2023-06-22T01:14:43;9.70;;;8.70;;
6825;SDS011;3451;52.476;13.316;2023-06-22T01:17:11;10.33;;;9.30;;
6825;SDS011;3451;52.476;13.316;2023-06-22T01:19:43;14.30;;;9.87;;
6825;SDS011;3451;52.476;13.316;2023-06-22T01:22:10;11.03;;;9.47;;
6825;SDS011;3451;52.476;13.316;2023-06-22T01:29:54;9.87;;;8.70;;
6825;SDS011;3451;52.476;13.316;2023-06-22T01:32:30;11.27;;;9.47;;
6825;SDS011;3451;52.476;13.316;2023-06-22T01:34:57;10.87;;;9.70;;
6825;SDS011;3451;52.476;13.316;2023-06-22T01:37:24;12.73;;;9.40;;
6825;SDS011;3451;52.476;13.316;2023-06-22T01:39:51;9.90;;;8.90;;
6825;SDS011;3451;52.476;13.316;2023-06-22T01:42:17;11.30;;;10.07;;
6825;SDS011;3451;52.476;13.316;2023-06-22T01:44:44;11.73;;;9.27;;
6825;SDS011;3451;52.476;13.316;2023-06-22T01:47:11;10.90;;;9.27;;
6825;SDS011;3451;52.476;13.316;2023-06-22T01:49:40;12.00;;;9.57;;
6825;SDS011;3451;52.476;13.316;2023-06-22T01:52:07;10.30;;;9.20;;
6825;SDS011;3451;52.476;13.316;2023-06-22T01:54:33;12.47;;;9.37;;
6825;SDS011;3451;52.476;13.316;2023-06-22T01:56:59;12.77;;;9.63;;
6825;SDS011;3451;52.476;13.316;2023-06-22T01:59:32;11.50;;;10.30;;
6825;SDS011;3451;52.476;13.316;2023-06-22T02:04:28;12.03;;;10.23;;
6825;SDS011;3451;52.476;13.316;2023-06-22T02:07:00;13.00;;;10.23;;
6825;SDS011;3451;52.476;13.316;2023-06-22T02:09:29;11.43;;;9.73;;
6825;SDS011;3451;52.476;13.316;2023-06-22T02:11:56;12.00;;;10.03;;
6825;SDS011;3451;52.476;13.316;2023-06-22T02:14:23;13.73;;;11.20;;
6825;SDS011;3451;52.476;13.316;2023-06-22T02:16:50;12.23;;;9.70;;
6825;SDS011;3451;52.476;13.316;2023-06-22T02:19:17;12.03;;;10.73;;
6825;SDS011;3451;52.476;13.316;2023-06-22T02:21:45;12.40;;;10.87;;
6825;SDS011;3451;52.476;13.316;2023-06-22T02:24:11;14.93;;;12.80;;
6825;SDS011;3451;52.476;13.316;2023-06-22T02:26:38;13.10;;;11.23;;
6825;SDS011;3451;52.476;13.316;2023-06-22T02:29:05;18.60;;;12.37;;
6825;SDS011;3451;52.476;13.316;2023-06-22T02:31:32;13.57;;;11.93;;
6825;SDS011;3451;52.476;13.316;2023-06-22T02:33:58;15.13;;;12.43;;
6825;SDS011;3451;52.476;13.316;2023-06-22T02:36:25;15.00;;;12.00;;
6825;SDS011;3451;52.476;13.316;2023-06-22T02:38:53;15.57;;;12.33;;
6825;SDS011;3451;52.476;13.316;2023-06-22T02:41:20;15.57;;;12.80;;
6825;SDS011;3451;52.476;13.316;2023-06-22T02:43:46;16.43;;;12.20;;
6825;SDS011;3451;52.476;13.316;2023-06-22T02:46:13;13.03;;;11.63;;
6825;SDS011;3451;52.476;13.316;2023-06-22T02:48:40;15.70;;;12.50;;
6825;SDS011;3451;52.476;13.316;2023-06-22T02:51:06;13.73;;;11.87;;
6825;SDS011;3451;52.476;13.316;2023-06-22T02:53:33;16.10;;;13.43;;
6825;SDS011;3451;52.476;13.316;2023-06-22T02:56:01;16.00;;;12.23;;
6825;SDS011;3451;52.476;13.316;2023-06-22T02:58:27;15.70;;;11.53;;
6825;SDS011;3451;52.476;13.316;2023-06-22T03:00:54;14.50;;;12.20;;
6825;SDS011;3451;52.476;13.316;2023-06-22T03:03:20;15.23;;;12.90;;
6825;SDS011;3451;52.476;13.316;2023-06-22T03:05:46;15.27;;;12.87;;
6825;SDS011;3451;52.476;13.316;2023-06-22T03:08:13;15.47;;;13.40;;
6825;SDS011;3451;52.476;13.316;2023-06-22T03:10:39;16.40;;;12.47;;
6825;SDS011;3451;52.476;13.316;2023-06-22T03:13:06;14.43;;;12.47;;
6825;SDS011;3451;52.476;13.316;2023-06-22T03:15:32;15.63;;;12.47;;
6825;SDS011;3451;52.476;13.316;2023-06-22T03:17:58;15.53;;;12.77;;
6825;SDS011;3451;52.476;13.316;2023-06-22T03:20:25;14.37;;;12.37;;
6825;SDS011;3451;52.476;13.316;2023-06-22T03:22:54;16.33;;;12.27;;
6825;SDS011;3451;52.476;13.316;2023-06-22T03:25:20;15.53;;;12.03;;
6825;SDS011;3451;52.476;13.316;2023-06-22T03:27:46;15.33;;;11.43;;
6825;SDS011;3451;52.476;13.316;2023-06-22T03:30:14;16.17;;;12.27;;
6825;SDS011;3451;52.476;13.316;2023-06-22T03:32:40;12.33;;;10.70;;
6825;SDS011;3451;52.476;13.316;2023-06-22T03:35:07;14.73;;;11.67;;
6825;SDS011;3451;52.476;13.316;2023-06-22T03:37:33;13.43;;;11.80;;
6825;SDS011;3451;52.476;13.316;2023-06-22T03:39:59;12.87;;;10.53;;
6825;SDS011;3451;52.476;13.316;2023-06-22T03:42:26;12.27;;;10.83;;
6825;SDS011;3451;52.476;13.316;2023-06-22T03:44:52;11.53;;;10.33;;
6825;SDS011;3451;52.476;13.316;2023-06-22T03:47:19;12.47;;;10.13;;
6825;SDS011;3451;52.476;13.316;2023-06-22T03:49:45;11.47;;;9.13;;
6825;SDS011;3451;52.476;13.316;2023-06-22T03:52:11;12.13;;;10.20;;
6825;SDS011;3451;52.476;13.316;2023-06-22T03:54:37;12.17;;;10.10;;
6825;SDS011;3451;52.476;13.316;2023-06-22T03:57:04;14.70;;;9.83;;
6825;SDS011;3451;52.476;13.316;2023-06-22T03:59:30;13.27;;;9.63;;
6825;SDS011;3451;52.476;13.316;2023-06-22T04:01:56;14.60;;;10.50;;
6825;SDS011;3451;52.476;13.316;2023-06-22T04:04:23;15.23;;;12.03;;
6825;SDS011;3451;52.476;13.316;2023-06-22T04:06:49;14.07;;;11.30;;
6825;SDS011;3451;52.476;13.316;2023-06-22T04:09:16;16.90;;;10.97;;
6825;SDS011;3451;52.476;13.316;2023-06-22T04:11:42;11.57;;;10.37;;
6825;SDS011;3451;52.476;13.316;2023-06-22T04:14:08;13.70;;;9.80;;
6825;SDS011;3451;52.476;13.316;2023-06-22T04:16:35;11.30;;;9.57;;
6825;SDS011;3451;52.476;13.316;2023-06-22T04:19:01;13.37;;;10.20;;
6825;SDS011;3451;52.476;13.316;2023-06-22T04:21:27;10.93;;;9.30;;
6825;SDS011;3451;52.476;13.316;2023-06-22T04:23:54;11.80;;;9.77;;
6825;SDS011;3451;52.476;13.316;2023-06-22T04:26:20;11.20;;;8.97;;
6825;SDS011;3451;52.476;13.316;2023-06-22T04:28:47;12.07;;;8.93;;
6825;SDS011;3451;52.476;13.316;2023-06-22T04:31:18;10.70;;;8.30;;
6825;SDS011;3451;52.476;13.316;2023-06-22T04:33:45;11.77;;;8.77;;
6825;SDS011;3451;52.476;13.316;2023-06-22T04:36:11;9.20;;;8.20;;
6825;SDS011;3451;52.476;13.316;2023-06-22T04:38:41;10.27;;;8.37;;
6825;SDS011;3451;52.476;13.316;2023-06-22T04:41:08;10.63;;;7.73;;
6825;SDS011;3451;52.476;13.316;2023-06-22T04:43:40;9.97;;;8.77;;
6825;SDS011;3451;52.476;13.316;2023-06-22T04:46:06;11.23;;;8.97;;
6825;SDS011;3451;52.476;13.316;2023-06-22T04:48:32;9.83;;;8.33;;
6825;SDS011;3451;52.476;13.316;2023-06-22T04:50:59;9.57;;;8.13;;
6825;SDS011;3451;52.476;13.316;2023-06-22T04:53:30;12.60;;;8.13;;
6825;SDS011;3451;52.476;13.316;2023-06-22T04:55:56;10.47;;;8.10;;
6825;SDS011;3451;52.476;13.316;2023-06-22T04:58:23;9.77;;;7.77;;
6825;SDS011;3451;52.476;13.316;2023-06-22T05:00:53;9.90;;;7.47;;
6825;SDS011;3451;52.476;13.316;2023-06-22T05:03:19;11.83;;;7.43;;
6825;SDS011;3451;52.476;13.316;2023-06-22T05:05:46;10.30;;;6.87;;
6825;SDS011;3451;52.476;13.316;2023-06-22T05:08:13;9.07;;;6.87;;
6825;SDS011;3451;52.476;13.316;2023-06-22T05:10:39;9.07;;;7.60;;
6825;SDS011;3451;52.476;13.316;2023-06-22T05:13:24;9.23;;;6.80;;
6825;SDS011;3451;52.476;13.316;2023-06-22T05:15:52;9.67;;;6.70;;
6825;SDS011;3451;52.476;13.316;2023-06-22T05:18:19;7.73;;;6.40;;
6825;SDS011;3451;52.476;13.316;2023-06-22T05:20:49;9.50;;;6.80;;
6825;SDS011;3451;52.476;13.316;2023-06-22T05:23:15;10.23;;;6.60;;
6825;SDS011;3451;52.476;13.316;2023-06-22T05:25:42;7.30;;;6.23;;
6825;SDS011;3451;52.476;13.316;2023-06-22T05:28:08;8.67;;;6.83;;
6825;SDS011;3451;52.476;13.316;2023-06-22T05:30:37;11.43;;;7.07;;
6825;SDS011;3451;52.476;13.316;2023-06-22T05:33:03;10.03;;;6.23;;
6825;SDS011;3451;52.476;13.316;2023-06-22T05:35:30;7.50;;;6.63;;
6825;SDS011;3451;52.476;13.316;2023-06-22T05:37:56;9.07;;;6.73;;
6825;SDS011;3451;52.476;13.316;2023-06-22T05:40:22;9.57;;;6.90;;
6825;SDS011;3451;52.476;13.316;2023-06-22T05:42:49;8.27;;;6.43;;
6825;SDS011;3451;52.476;13.316;2023-06-22T05:45:15;8.00;;;6.00;;
6825;SDS011;3451;52.476;13.316;2023-06-22T05:47:41;11.53;;;6.93;;
6825;SDS011;3451;52.476;13.316;2023-06-22T05:50:08;9.33;;;6.83;;
6825;SDS011;3451;52.476;13.316;2023-06-22T05:52:38;9.53;;;6.50;;
6825;SDS011;3451;52.476;13.316;2023-06-22T05:55:04;10.67;;;7.60;;
6825;SDS011;3451;52.476;13.316;2023-06-22T05:57:31;7.80;;;6.67;;
6825;SDS011;3451;52.476;13.316;2023-06-22T05:59:57;12.83;;;6.80;;
6825;SDS011;3451;52.476;13.316;2023-06-22T06:02:23;9.70;;;6.77;;
6825;SDS011;3451;52.476;13.316;2023-06-22T06:04:50;9.70;;;7.00;;
6825;SDS011;3451;52.476;13.316;2023-06-22T06:07:18;8.60;;;6.90;;
6825;SDS011;3451;52.476;13.316;2023-06-22T06:09:45;10.03;;;6.77;;
6825;SDS011;3451;52.476;13.316;2023-06-22T06:12:11;10.43;;;7.13;;
6825;SDS011;3451;52.476;13.316;2023-06-22T06:14:37;8.17;;;7.20;;
6825;SDS011;3451;52.476;13.316;2023-06-22T06:17:04;10.00;;;7.00;;
6825;SDS011;3451;52.476;13.316;2023-06-22T06:19:30;10.03;;;6.80;;
6825;SDS011;3451;52.476;13.316;2023-06-22T06:21:56;10.07;;;6.97;;
6825;SDS011;3451;52.476;13.316;2023-06-22T06:24:23;10.70;;;6.67;;
6825;SDS011;3451;52.476;13.316;2023-06-22T06:26:49;11.57;;;6.27;;
6825;SDS011;3451;52.476;13.316;2023-06-22T06:29:15;7.70;;;6.67;;
6825;SDS011;3451;52.476;13.316;2023-06-22T06:31:42;9.10;;;6.67;;
6825;SDS011;3451;52.476;13.316;2023-06-22T06:34:09;7.90;;;6.10;;
6825;SDS011;3451;52.476;13.316;2023-06-22T06:36:35;7.10;;;5.43;;
6825;SDS011;3451;52.476;13.316;2023-06-22T06:39:02;6.53;;;5.73;;
6825;SDS011;3451;52.476;13.316;2023-06-22T06:41:29;8.90;;;5.43;;
6825;SDS011;3451;52.476;13.316;2023-06-22T06:43:56;6.77;;;5.20;;
6825;SDS011;3451;52.476;13.316;2023-06-22T06:46:22;6.20;;;4.70;;
6825;SDS011;3451;52.476;13.316;2023-06-22T06:48:48;7.00;;;4.90;;
6825;SDS011;3451;52.476;13.316;2023-06-22T06:51:15;6.70;;;4.50;;
6825;SDS011;3451;52.476;13.316;2023-06-22T06:53:41;8.27;;;4.37;;
6825;SDS011;3451;52.476;13.316;2023-06-22T06:56:07;7.37;;;4.50;;
6825;SDS011;3451;52.476;13.316;2023-06-22T06:58:36;7.23;;;4.17;;
6825;SDS011;3451;52.476;13.316;2023-06-22T07:01:03;6.20;;;4.30;;
6825;SDS011;3451;52.476;13.316;2023-06-22T07:03:29;5.47;;;4.23;;
6825;SDS011;3451;52.476;13.316;2023-06-22T07:05:56;9.83;;;4.37;;
6825;SDS011;3451;52.476;13.316;2023-06-22T07:08:22;7.63;;;4.63;;
6825;SDS011;3451;52.476;13.316;2023-06-22T07:10:48;6.27;;;3.90;;
6825;SDS011;3451;52.476;13.316;2023-06-22T07:13:14;4.27;;;3.70;;
6825;SDS011;3451;52.476;13.316;2023-06-22T07:15:41;4.80;;;4.00;;
6825;SDS011;3451;52.476;13.316;2023-06-22T07:18:08;6.10;;;3.47;;
6825;SDS011;3451;52.476;13.316;2023-06-22T07:20:34;4.87;;;3.57;;
6825;SDS011;3451;52.476;13.316;2023-06-22T07:23:01;5.97;;;3.57;;
6825;SDS011;3451;52.476;13.316;2023-06-22T07:25:27;7.40;;;4.07;;
6825;SDS011;3451;52.476;13.316;2023-06-22T07:27:58;6.07;;;3.50;;
6825;SDS011;3451;52.476;13.316;2023-06-22T07:30:25;5.90;;;3.57;;
6825;SDS011;3451;52.476;13.316;2023-06-22T07:32:51;6.90;;;3.47;;
6825;SDS011;3451;52.476;13.316;2023-06-22T07:35:18;5.00;;;3.67;;
6825;SDS011;3451;52.476;13.316;2023-06-22T07:37:44;5.40;;;2.78;;
6825;SDS011;3451;52.476;13.316;2023-06-22T07:40:11;4.10;;;3.40;;
6825;SDS011;3451;52.476;13.316;2023-06-22T07:42:37;3.25;;;2.67;;
6825;SDS011;3451;52.476;13.316;2023-06-22T07:45:04;5.03;;;2.93;;
6825;SDS011;3451;52.476;13.316;2023-06-22T07:47:31;4.37;;;2.97;;
6825;SDS011;3451;52.476;13.316;2023-06-22T07:50:02;3.33;;;2.57;;
6825;SDS011;3451;52.476;13.316;2023-06-22T07:52:30;3.43;;;2.57;;
6825;SDS011;3451;52.476;13.316;2023-06-22T07:54:56;3.90;;;2.80;;
6825;SDS011;3451;52.476;13.316;2023-06-22T07:57:23;3.80;;;2.90;;
6825;SDS011;3451;52.476;13.316;2023-06-22T07:59:49;3.33;;;3.03;;
6825;SDS011;3451;52.476;13.316;2023-06-22T08:02:16;5.17;;;3.40;;
6825;SDS011;3451;52.476;13.316;2023-06-22T08:04:42;4.77;;;2.70;;
6825;SDS011;3451;52.476;13.316;2023-06-22T08:07:08;3.60;;;2.90;;
6825;SDS011;3451;52.476;13.316;2023-06-22T08:09:35;5.63;;;3.13;;
6825;SDS011;3451;52.476;13.316;2023-06-22T08:12:02;4.40;;;3.03;;
6825;SDS011;3451;52.476;13.316;2023-06-22T08:14:29;4.97;;;3.03;;
6825;SDS011;3451;52.476;13.316;2023-06-22T08:16:55;4.73;;;2.70;;
6825;SDS011;3451;52.476;13.316;2023-06-22T08:19:21;3.93;;;2.80;;
6825;SDS011;3451;52.476;13.316;2023-06-22T08:21:48;3.87;;;2.90;;
6825;SDS011;3451;52.476;13.316;2023-06-22T08:24:14;3.43;;;2.47;;
6825;SDS011;3451;52.476;13.316;2023-06-22T08:26:40;3.27;;;2.47;;
6825;SDS011;3451;52.476;13.316;2023-06-22T08:29:07;4.83;;;2.50;;
6825;SDS011;3451;52.476;13.316;2023-06-22T08:31:33;3.77;;;3.07;;
6825;SDS011;3451;52.476;13.316;2023-06-22T08:34:00;4.20;;;2.90;;
6825;SDS011;3451;52.476;13.316;2023-06-22T08:36:26;3.87;;;3.20;;
6825;SDS011;3451;52.476;13.316;2023-06-22T08:38:56;5.63;;;3.20;;
6825;SDS011;3451;52.476;13.316;2023-06-22T08:41:27;3.43;;;3.13;;
6825;SDS011;3451;52.476;13.316;2023-06-22T08:43:54;5.67;;;3.20;;
6825;SDS011;3451;52.476;13.316;2023-06-22T08:46:20;5.73;;;3.57;;
6825;SDS011;3451;52.476;13.316;2023-06-22T08:48:49;5.77;;;3.43;;
6825;SDS011;3451;52.476;13.316;2023-06-22T08:51:16;3.90;;;3.03;;
6825;SDS011;3451;52.476;13.316;2023-06-22T08:53:43;4.43;;;3.23;;
6825;SDS011;3451;52.476;13.316;2023-06-22T08:56:11;6.10;;;3.23;;
6825;SDS011;3451;52.476;13.316;2023-06-22T08:58:37;6.00;;;3.20;;
6825;SDS011;3451;52.476;13.316;2023-06-22T09:01:04;7.70;;;3.10;;
6825;SDS011;3451;52.476;13.316;2023-06-22T09:03:30;4.30;;;3.40;;
6825;SDS011;3451;52.476;13.316;2023-06-22T09:05:59;4.77;;;2.97;;
6825;SDS011;3451;52.476;13.316;2023-06-22T09:08:25;3.37;;;3.07;;
6825;SDS011;3451;52.476;13.316;2023-06-22T09:10:52;4.40;;;3.20;;
6825;SDS011;3451;52.476;13.316;2023-06-22T09:13:18;5.90;;;3.07;;
6825;SDS011;3451;52.476;13.316;2023-06-22T09:15:45;3.73;;;3.03;;
6825;SDS011;3451;52.476;13.316;2023-06-22T09:18:11;4.07;;;3.07;;
6825;SDS011;3451;52.476;13.316;2023-06-22T09:20:38;5.70;;;3.10;;
6825;SDS011;3451;52.476;13.316;2023-06-22T09:23:04;4.70;;;3.07;;
6825;SDS011;3451;52.476;13.316;2023-06-22T09:25:30;11.13;;;2.97;;
6825;SDS011;3451;52.476;13.316;2023-06-22T09:27:57;3.70;;;2.67;;
6825;SDS011;3451;52.476;13.316;2023-06-22T09:30:23;4.57;;;3.07;;
6825;SDS011;3451;52.476;13.316;2023-06-22T09:32:50;3.67;;;2.97;;
6825;SDS011;3451;52.476;13.316;2023-06-22T09:35:16;4.57;;;2.73;;
6825;SDS011;3451;52.476;13.316;2023-06-22T09:37:43;4.93;;;2.90;;
6825;SDS011;3451;52.476;13.316;2023-06-22T09:40:09;3.73;;;2.73;;
6825;SDS011;3451;52.476;13.316;2023-06-22T09:42:37;4.13;;;2.70;;
6825;SDS011;3451;52.476;13.316;2023-06-22T09:45:05;3.37;;;3.00;;
6825;SDS011;3451;52.476;13.316;2023-06-22T09:47:32;3.37;;;2.57;;
6825;SDS011;3451;52.476;13.316;2023-06-22T09:49:58;3.57;;;2.73;;
6825;SDS011;3451;52.476;13.316;2023-06-22T09:52:25;4.47;;;3.50;;
6825;SDS011;3451;52.476;13.316;2023-06-22T09:55:08;4.50;;;3.30;;
6825;SDS011;3451;52.476;13.316;2023-06-22T09:57:34;4.23;;;3.37;;
6825;SDS011;3451;52.476;13.316;2023-06-22T10:00:01;4.70;;;3.30;;
6825;SDS011;3451;52.476;13.316;2023-06-22T10:02:27;5.97;;;3.30;;
6825;SDS011;3451;52.476;13.316;2023-06-22T10:04:53;5.83;;;3.50;;
6825;SDS011;3451;52.476;13.316;2023-06-22T10:07:20;7.77;;;3.83;;
6825;SDS011;3451;52.476;13.316;2023-06-22T10:09:47;6.90;;;3.57;;
6825;SDS011;3451;52.476;13.316;2023-06-22T10:12:13;5.03;;;3.47;;
6825;SDS011;3451;52.476;13.316;2023-06-22T10:14:39;4.93;;;3.47;;
6825;SDS011;3451;52.476;13.316;2023-06-22T10:17:06;7.37;;;4.00;;
6825;SDS011;3451;52.476;13.316;2023-06-22T10:19:33;4.43;;;3.75;;
6825;SDS011;3451;52.476;13.316;2023-06-22T10:21:59;5.70;;;3.60;;
6825;SDS011;3451;52.476;13.316;2023-06-22T10:24:26;3.92;;;3.30;;
6825;SDS011;3451;52.476;13.316;2023-06-22T10:26:52;10.35;;;3.60;;
6825;SDS011;3451;52.476;13.316;2023-06-22T10:29:18;6.25;;;3.53;;
6825;SDS011;3451;52.476;13.316;2023-06-22T10:31:44;4.20;;;3.80;;
6825;SDS011;3451;52.476;13.316;2023-06-22T10:34:11;4.57;;;3.60;;
6825;SDS011;3451;52.476;13.316;2023-06-22T10:36:38;4.75;;;3.72;;
6825;SDS011;3451;52.476;13.316;2023-06-22T10:39:04;4.85;;;3.42;;
6825;SDS011;3451;52.476;13.316;2023-06-22T10:41:31;4.43;;;3.83;;
6825;SDS011;3451;52.476;13.316;2023-06-22T10:43:57;3.92;;;3.53;;
6825;SDS011;3451;52.476;13.316;2023-06-22T10:46:24;6.55;;;3.90;;
6825;SDS011;3451;52.476;13.316;2023-06-22T10:48:51;4.63;;;3.67;;
6825;SDS011;3451;52.476;13.316;2023-06-22T10:51:20;5.00;;;3.88;;
6825;SDS011;3451;52.476;13.316;2023-06-22T10:53:47;5.07;;;3.72;;
6825;SDS011;3451;52.476;13.316;2023-06-22T10:56:13;3.70;;;3.30;;
6825;SDS011;3451;52.476;13.316;2023-06-22T10:58:39;6.20;;;3.65;;
6825;SDS011;3451;52.476;13.316;2023-06-22T11:01:06;4.38;;;3.28;;
6825;SDS011;3451;52.476;13.316;2023-06-22T11:03:32;5.25;;;3.30;;
6825;SDS011;3451;52.476;13.316;2023-06-22T11:05:58;4.38;;;3.50;;
6825;SDS011;3451;52.476;13.316;2023-06-22T11:08:25;6.82;;;3.60;;
6825;SDS011;3451;52.476;13.316;2023-06-22T11:10:51;9.55;;;3.33;;
6825;SDS011;3451;52.476;13.316;2023-06-22T11:13:17;4.72;;;3.85;;
6825;SDS011;3451;52.476;13.316;2023-06-22T11:15:43;4.05;;;3.30;;
6825;SDS011;3451;52.476;13.316;2023-06-22T11:18:10;6.32;;;3.60;;
6825;SDS011;3451;52.476;13.316;2023-06-22T11:20:36;4.90;;;3.05;;
6825;SDS011;3451;52.476;13.316;2023-06-22T11:23:05;4.60;;;3.47;;
6825;SDS011;3451;52.476;13.316;2023-06-22T11:25:34;5.40;;;3.67;;
6825;SDS011;3451;52.476;13.316;2023-06-22T11:28:02;5.18;;;2.97;;
6825;SDS011;3451;52.476;13.316;2023-06-22T11:30:29;3.72;;;3.33;;
6825;SDS011;3451;52.476;13.316;2023-06-22T11:32:56;5.60;;;3.45;;
6825;SDS011;3451;52.476;13.316;2023-06-22T11:35:23;6.70;;;3.90;;
6825;SDS011;3451;52.476;13.316;2023-06-22T11:37:50;3.78;;;3.28;;
6825;SDS011;3451;52.476;13.316;2023-06-22T11:40:16;4.47;;;3.30;;
6825;SDS011;3451;52.476;13.316;2023-06-22T11:42:43;6.05;;;3.55;;
6825;SDS011;3451;52.476;13.316;2023-06-22T11:45:10;5.00;;;3.45;;
6825;SDS011;3451;52.476;13.316;2023-06-22T11:47:36;5.03;;;3.70;;
6825;SDS011;3451;52.476;13.316;2023-06-22T11:50:03;4.28;;;3.72;;
6825;SDS011;3451;52.476;13.316;2023-06-22T11:52:29;8.52;;;3.83;;
6825;SDS011;3451;52.476;13.316;2023-06-22T11:54:55;4.10;;;3.42;;
6825;SDS011;3451;52.476;13.316;2023-06-22T11:57:22;4.25;;;3.70;;
6825;SDS011;3451;52.476;13.316;2023-06-22T11:59:48;5.00;;;3.55;;
6825;SDS011;3451;52.476;13.316;2023-06-22T12:02:14;5.72;;;3.72;;
6825;SDS011;3451;52.476;13.316;2023-06-22T12:04:41;3.80;;;3.47;;
6825;SDS011;3451;52.476;13.316;2023-06-22T12:07:07;4.63;;;3.97;;
6825;SDS011;3451;52.476;13.316;2023-06-22T12:09:34;5.22;;;3.60;;
6825;SDS011;3451;52.476;13.316;2023-06-22T12:12:00;4.60;;;4.18;;
6825;SDS011;3451;52.476;13.316;2023-06-22T12:14:27;6.80;;;3.92;;
6825;SDS011;3451;52.476;13.316;2023-06-22T12:16:55;5.35;;;3.80;;
6825;SDS011;3451;52.476;13.316;2023-06-22T12:19:22;4.63;;;4.00;;
6825;SDS011;3451;52.476;13.316;2023-06-22T12:21:48;5.40;;;3.70;;
6825;SDS011;3451;52.476;13.316;2023-06-22T12:24:14;4.38;;;3.97;;
6825;SDS011;3451;52.476;13.316;2023-06-22T12:26:41;4.00;;;3.60;;
6825;SDS011;3451;52.476;13.316;2023-06-22T12:29:07;6.45;;;3.97;;
6825;SDS011;3451;52.476;13.316;2023-06-22T12:31:35;4.03;;;3.53;;
6825;SDS011;3451;52.476;13.316;2023-06-22T12:34:01;6.03;;;4.20;;
6825;SDS011;3451;52.476;13.316;2023-06-22T12:36:28;5.13;;;3.83;;
6825;SDS011;3451;52.476;13.316;2023-06-22T12:38:54;5.45;;;4.20;;
6825;SDS011;3451;52.476;13.316;2023-06-22T12:41:21;5.95;;;4.03;;
6825;SDS011;3451;52.476;13.316;2023-06-22T12:43:48;4.20;;;3.80;;
6825;SDS011;3451;52.476;13.316;2023-06-22T12:46:14;5.22;;;3.80;;
6825;SDS011;3451;52.476;13.316;2023-06-22T12:48:41;5.47;;;3.90;;
6825;SDS011;3451;52.476;13.316;2023-06-22T12:51:08;4.85;;;4.05;;
6825;SDS011;3451;52.476;13.316;2023-06-22T12:53:35;4.88;;;3.92;;
6825;SDS011;3451;52.476;13.316;2023-06-22T12:56:01;6.25;;;3.95;;
6825;SDS011;3451;52.476;13.316;2023-06-22T12:58:28;6.50;;;3.95;;
6825;SDS011;3451;52.476;13.316;2023-06-22T13:00:54;6.05;;;3.97;;
6825;SDS011;3451;52.476;13.316;2023-06-22T13:03:20;4.15;;;3.70;;
6825;SDS011;3451;52.476;13.316;2023-06-22T13:05:47;4.60;;;3.67;;
6825;SDS011;3451;52.476;13.316;2023-06-22T13:08:13;4.55;;;3.97;;
6825;SDS011;3451;52.476;13.316;2023-06-22T13:10:40;5.47;;;4.18;;
6825;SDS011;3451;52.476;13.316;2023-06-22T13:13:06;4.10;;;3.67;;
6825;SDS011;3451;52.476;13.316;2023-06-22T13:15:32;4.28;;;3.88;;
6825;SDS011;3451;52.476;13.316;2023-06-22T13:17:59;4.78;;;3.90;;
6825;SDS011;3451;52.476;13.316;2023-06-22T13:20:26;6.05;;;4.18;;
6825;SDS011;3451;52.476;13.316;2023-06-22T13:22:54;5.53;;;4.10;;
6825;SDS011;3451;52.476;13.316;2023-06-22T13:25:21;5.75;;;4.28;;
6825;SDS011;3451;52.476;13.316;2023-06-22T13:27:49;5.85;;;4.65;;
6825;SDS011;3451;52.476;13.316;2023-06-22T13:30:16;4.80;;;4.30;;
6825;SDS011;3451;52.476;13.316;2023-06-22T13:32:42;6.65;;;4.53;;
6825;SDS011;3451;52.476;13.316;2023-06-22T13:35:10;5.47;;;3.72;;
6825;SDS011;3451;52.476;13.316;2023-06-22T13:37:36;5.43;;;3.70;;
6825;SDS011;3451;52.476;13.316;2023-06-22T13:40:04;5.03;;;4.10;;
6825;SDS011;3451;52.476;13.316;2023-06-22T13:42:32;8.50;;;4.47;;
6825;SDS011;3451;52.476;13.316;2023-06-22T13:44:59;6.68;;;4.25;;
6825;SDS011;3451;52.476;13.316;2023-06-22T13:47:25;6.55;;;4.40;;
6825;SDS011;3451;52.476;13.316;2023-06-22T13:49:55;6.22;;;4.18;;
6825;SDS011;3451;52.476;13.316;2023-06-22T13:52:23;4.82;;;4.13;;
6825;SDS011;3451;52.476;13.316;2023-06-22T13:54:50;5.88;;;4.50;;
6825;SDS011;3451;52.476;13.316;2023-06-22T13:57:16;4.57;;;4.00;;
6825;SDS011;3451;52.476;13.316;2023-06-22T13:59:42;5.80;;;4.18;;
6825;SDS011;3451;52.476;13.316;2023-06-22T14:02:09;6.10;;;4.10;;
6825;SDS011;3451;52.476;13.316;2023-06-22T14:04:35;8.32;;;4.03;;
6825;SDS011;3451;52.476;13.316;2023-06-22T14:07:01;8.60;;;4.65;;
6825;SDS011;3451;52.476;13.316;2023-06-22T14:09:28;7.57;;;4.40;;
6825;SDS011;3451;52.476;13.316;2023-06-22T14:11:54;5.22;;;4.72;;
6825;SDS011;3451;52.476;13.316;2023-06-22T14:14:21;5.70;;;4.75;;
6825;SDS011;3451;52.476;13.316;2023-06-22T14:16:48;6.28;;;4.07;;
6825;SDS011;3451;52.476;13.316;2023-06-22T14:19:18;6.30;;;4.10;;
6825;SDS011;3451;52.476;13.316;2023-06-22T14:21:45;5.57;;;4.10;;
6825;SDS011;3451;52.476;13.316;2023-06-22T14:24:11;5.40;;;3.83;;
6825;SDS011;3451;52.476;13.316;2023-06-22T14:26:37;6.25;;;4.63;;
6825;SDS011;3451;52.476;13.316;2023-06-22T14:29:04;4.70;;;4.20;;
6825;SDS011;3451;52.476;13.316;2023-06-22T14:31:30;7.13;;;3.88;;
6825;SDS011;3451;52.476;13.316;2023-06-22T14:33:56;5.60;;;4.30;;
6825;SDS011;3451;52.476;13.316;2023-06-22T14:36:23;5.25;;;4.65;;
6825;SDS011;3451;52.476;13.316;2023-06-22T14:38:49;4.68;;;4.20;;
6825;SDS011;3451;52.476;13.316;2023-06-22T14:41:15;7.55;;;4.18;;
6825;SDS011;3451;52.476;13.316;2023-06-22T14:43:44;5.47;;;4.30;;
6825;SDS011;3451;52.476;13.316;2023-06-22T14:46:12;6.05;;;4.20;;
6825;SDS011;3451;52.476;13.316;2023-06-22T14:48:38;5.57;;;4.03;;
6825;SDS011;3451;52.476;13.316;2023-06-22T14:51:05;7.63;;;4.00;;
6825;SDS011;3451;52.476;13.316;2023-06-22T14:53:31;8.25;;;4.43;;
6825;SDS011;3451;52.476;13.316;2023-06-22T14:55:57;6.13;;;4.30;;
6825;SDS011;3451;52.476;13.316;2023-06-22T14:58:26;5.57;;;4.35;;
6825;SDS011;3451;52.476;13.316;2023-06-22T15:00:52;4.57;;;3.90;;